Ellsworth, MI (49729)

10:28 AM EDT on August 29, 2015 (GMT -0400)
2.1 MI NNW of East Jordan(West Field) | | Change Station
CLOSE
Current Station
Personal Weather Station
Location: East Jordan, MI
Elevation: 640 ft
Nearby Weather Stations

Elev 640 ft 45.19 °N, 85.15 °W | Updated 8 seconds ago

Overcast
Overcast
62.1 °F
Feels Like 62.1 °F
N
2.0
Wind Variable Wind from ESE
Gusts 2.0 mph

Today
High -- | Low -- °F
--% Chance of Precip.
Yesterday
High -- | Low -- °F
Precip. -- in
6:58 AM 8:23 PM
Full, 100% visible
Pressure 30.11 in
Visibility 10.0 miles
Clouds Scattered Clouds 500 ft
Mostly Cloudy 900 ft
Overcast 6000 ft
Dew Point 62 °F
Humidity 98%
Rainfall 0.13 in
Snow Depth Not available.
UV 1 out of 12
Pollen 9.00 out of 12
Air Quality Not available.
Flu Activity Not available.
METAR KACB 291413Z AUTO 18004KT 10SM SCT005 BKN009 OVC060 17/16 A3011 RMK AO2 T01660155
Pressure 30.11 in
Visibility 10.0 miles
Clouds Scattered Clouds 500 ft
Mostly Cloudy 900 ft
Overcast 6000 ft
Dew Point 62 °F
Humidity 98%
Rainfall 0.13 in
Snow Depth Not available.
UV 1 out of 12
Pollen 9.00 out of 12
Air Quality Not available.
Flu Activity Not available.
METAR KACB 291413Z AUTO 18004KT 10SM SCT005 BKN009 OVC060 17/16 A3011 RMK AO2 T01660155
Nowcast | as of 10:00 am EDT on August 29, 2015

At 11 am...cloudy. Scattered showers. Temperature 64. South winds 5 mph. At 1 PM...cloudy. Scattered showers. Temperature 68. South winds 6 mph. At 3 PM...mostly cloudy. Scattered showers. Temperature 71. South winds 6 mph. At 5 PM...mostly cloudy. Scattered showers. Temperature 71. Southwest winds 7 mph.

×

10-Day Weather Forecast

×

Almanac

Astronomy

Aug. 29, 2015 Rise Set
Actual Time
Civil Twilight
Nautical Twilight
Astronomical Twilight
Moon
Length of Visible Light
Length of Day
Tomorrow will be .
, % of the Moon is Illuminated

Today's Extremes

State Highs State Lows

Community

WunderPhotos

Upload Photos

1,850,706 photos uploaded!

WunderBlogs® & News

Nearby

Air Quality

  Air Quality AQ Index Pollutant
Not available.

Snow Depth

Station Depth Elevation

Earthquake Activity

City Distance Mag. Time & Date
Minimum magnitude displayed is 2.5.

Coastal Water Temperatures

Place Temperature

Stations

Nearby Weather Stations

Station Location Temp. Windchill Dew Point Humidity Wind Precip. Elev Updated Type